Ariadne — 5BSE4 — position and weather

sailwx.info

Track history (hours):
 
Tides and Currents Weather Stations Pressure Air Temp Water Temp Dewpoint Dewpoint Depression Visibility Wind Speed Wind Dir Waves Ship Positions

Ariadne

Last reported at 2017-Oct-17 03:54 UTC. Time now 2017-Oct-17 04:17 UTC.
Position N 36°41' E 014°35'.

Length 130 m; draft 6.6 m.

Type: Other ship. MMSI: 210594000.

Date/timePositionNaut miles runAvg speedWind from/ knotsBaromVisibWave heightAir tempDewpointWater temp
2017-Oct-17 03:54N 36°41' E 014°35'410.6
2017-Oct-17 03:30N 36°42' E 014°30'510.7
2017-Oct-17 03:00N 36°43' E 014°23'510.9
2017-Oct-17 02:30N 36°44' E 014°16'611.1
2017-Oct-17 02:00N 36°45' E 014°10'811.5
2017-Oct-17 01:20N 36°47' E 014°00'3311.7
2017-Oct-16 22:32N 36°54' E 013°20'011.7
2017-Oct-16 22:30N 36°54' E 013°20'811.7
2017-Oct-16 21:50N 36°56' E 013°10'1511.8
2017-Oct-16 20:33N 36°59' E 012°52'112.1
2017-Oct-16 20:30N 36°59' E 012°51'3111.7
2017-Oct-16 17:51N 37°06' E 012°13'50210.9
2017-Oct-14 19:45N 36°46' E 001°45'311.2
2017-Oct-14 19:28N 36°46' E 001°41'511.2
2017-Oct-14 19:00N 36°45' E 001°35'611.3
2017-Oct-14 18:30N 36°44' E 001°28'611.2
2017-Oct-14 17:57N 36°43' E 001°20'510.9
2017-Oct-14 17:28N 36°43' E 001°14'510.7
2017-Oct-14 17:00N 36°42' E 001°07'510.5
2017-Oct-14 16:30N 36°41' E 001°01'510.6
2017-Oct-14 16:00N 36°40' E 000°54'611.1
2017-Oct-14 15:29N 36°39' E 000°47'511.2
2017-Oct-14 15:00N 36°39' E 000°41'611.3
2017-Oct-14 14:30N 36°38' E 000°34'811.5
2017-Oct-14 13:48N 36°37' E 000°24'311.5
2017-Oct-14 13:30N 36°36' E 000°19'4611.5
2017-Oct-14 09:30N 36°30' W 000°37'911.2
2017-Oct-14 08:45N 36°29' W 000°47'311.0
2017-Oct-14 08:30N 36°28' W 000°51'21411.6
2017-Oct-13 14:01N 35°57' W 005°13'011.4
2017-Oct-13 14:00N 35°57' W 005°14'5 9.7
2017-Oct-13 13:30N 35°54' W 005°18'1 1.3
2017-Oct-13 12:58N 35°54' W 005°18'0 0.0
2017-Oct-13 12:28N 35°54' W 005°18'0 0.0
2017-Oct-13 11:58N 35°54' W 005°18'0 0.0
2017-Oct-13 11:28N 35°54' W 005°18'0 0.0
2017-Oct-13 10:58N 35°54' W 005°18'0 0.0
2017-Oct-13 10:25N 35°54' W 005°18'0 0.0
2017-Oct-13 09:58N 35°54' W 005°18'0 0.0
2017-Oct-13 09:28N 35°54' W 005°18'0 0.0
2017-Oct-13 07:55N 35°54' W 005°18'0 0.0
2017-Oct-13 07:28N 35°54' W 005°18'0 0.0
2017-Oct-13 06:58N 35°54' W 005°18'0 0.0
2017-Oct-13 06:30N 35°54' W 005°18'1 1.2
2017-Oct-13 06:01N 35°54' W 005°18'1 2.6
2017-Oct-13 05:31N 35°56' W 005°19'0 0.7
2017-Oct-13 05:00N 35°56' W 005°19'3 5.2
2017-Oct-13 04:30N 35°58' W 005°21'5 9.5
2017-Oct-13 04:00N 35°57' W 005°27'7310.2
2017-Oct-12 20:53N 35°59' W 006°57'6 9.9
2017-Oct-12 20:17N 36°00' W 007°04'410.2
2017-Oct-12 19:56N 36°01' W 007°08'510.5
2017-Oct-12 19:30N 36°01' W 007°14'1010.3
2017-Oct-12 18:31N 36°03' W 007°26'1 9.6
2017-Oct-12 18:26N 36°03' W 007°27'410.6
2017-Oct-12 18:00N 36°03' W 007°33'510.5
2017-Oct-12 17:30N 36°04' W 007°39'610.5
2017-Oct-12 16:57N 36°05' W 007°46'510.5
2017-Oct-12 16:31N 36°06' W 007°52'1210.6
2017-Oct-12 15:21N 36°08' W 008°07'410.7
2017-Oct-12 15:00N 36°09' W 008°11'1010.3
2017-Oct-12 14:01N 36°10' W 008°24'210.5
2017-Oct-12 13:48N 36°11' W 008°27'410.6
2017-Oct-12 13:28N 36°11' W 008°31'610.7
2017-Oct-12 12:54N 36°12' W 008°38'2310.5
2017-Oct-12 10:40N 36°15' W 009°07'210.4
2017-Oct-12 10:30N 36°16' W 009°09'3010.4
2017-Oct-12 07:36N 36°24' W 009°45'2210.5
2017-Oct-12 05:31N 36°33' W 010°10'30710.4
2017-Oct-11 00:00N 38°41' W 016°02'  
Track history (hours):
 
Tides and Currents Weather Stations Pressure Air Temp Water Temp Dewpoint Dewpoint Depression Visibility Wind Speed Wind Dir Waves Ship Positions

Ariadne

Last reported at 2017-Oct-17 03:54 UTC. Time now 2017-Oct-17 04:17 UTC.
Position N 36°41' E 014°35'.

Length 130 m; draft 6.6 m.

Type: Other ship. MMSI: 210594000.

Date/timePositionNaut miles runAvg speedWind from/ knotsBaromVisibWave heightAir tempDewpointWater temp
2017-Oct-17 03:54N 36°41' E 014°35'410.6
2017-Oct-17 03:30N 36°42' E 014°30'510.7
2017-Oct-17 03:00N 36°43' E 014°23'510.9
2017-Oct-17 02:30N 36°44' E 014°16'611.1
2017-Oct-17 02:00N 36°45' E 014°10'811.5
2017-Oct-17 01:20N 36°47' E 014°00'3311.7
2017-Oct-16 22:32N 36°54' E 013°20'011.7
2017-Oct-16 22:30N 36°54' E 013°20'811.7
2017-Oct-16 21:50N 36°56' E 013°10'1511.8
2017-Oct-16 20:33N 36°59' E 012°52'112.1
2017-Oct-16 20:30N 36°59' E 012°51'3111.7
2017-Oct-16 17:51N 37°06' E 012°13'50210.9
2017-Oct-14 19:45N 36°46' E 001°45'311.2
2017-Oct-14 19:28N 36°46' E 001°41'511.2
2017-Oct-14 19:00N 36°45' E 001°35'611.3
2017-Oct-14 18:30N 36°44' E 001°28'611.2
2017-Oct-14 17:57N 36°43' E 001°20'510.9
2017-Oct-14 17:28N 36°43' E 001°14'510.7
2017-Oct-14 17:00N 36°42' E 001°07'510.5
2017-Oct-14 16:30N 36°41' E 001°01'510.6
2017-Oct-14 16:00N 36°40' E 000°54'611.1
2017-Oct-14 15:29N 36°39' E 000°47'511.2
2017-Oct-14 15:00N 36°39' E 000°41'611.3
2017-Oct-14 14:30N 36°38' E 000°34'811.5
2017-Oct-14 13:48N 36°37' E 000°24'311.5
2017-Oct-14 13:30N 36°36' E 000°19'4611.5
2017-Oct-14 09:30N 36°30' W 000°37'911.2
2017-Oct-14 08:45N 36°29' W 000°47'311.0
2017-Oct-14 08:30N 36°28' W 000°51'21411.6
2017-Oct-13 14:01N 35°57' W 005°13'011.4
2017-Oct-13 14:00N 35°57' W 005°14'5 9.7
2017-Oct-13 13:30N 35°54' W 005°18'1 1.3
2017-Oct-13 12:58N 35°54' W 005°18'0 0.0
2017-Oct-13 12:28N 35°54' W 005°18'0 0.0
2017-Oct-13 11:58N 35°54' W 005°18'0 0.0
2017-Oct-13 11:28N 35°54' W 005°18'0 0.0
2017-Oct-13 10:58N 35°54' W 005°18'0 0.0
2017-Oct-13 10:25N 35°54' W 005°18'0 0.0
2017-Oct-13 09:58N 35°54' W 005°18'0 0.0
2017-Oct-13 09:28N 35°54' W 005°18'0 0.0
2017-Oct-13 07:55N 35°54' W 005°18'0 0.0
2017-Oct-13 07:28N 35°54' W 005°18'0 0.0
2017-Oct-13 06:58N 35°54' W 005°18'0 0.0
2017-Oct-13 06:30N 35°54' W 005°18'1 1.2
2017-Oct-13 06:01N 35°54' W 005°18'1 2.6
2017-Oct-13 05:31N 35°56' W 005°19'0 0.7
2017-Oct-13 05:00N 35°56' W 005°19'3 5.2
2017-Oct-13 04:30N 35°58' W 005°21'5 9.5
2017-Oct-13 04:00N 35°57' W 005°27'7310.2
2017-Oct-12 20:53N 35°59' W 006°57'6 9.9
2017-Oct-12 20:17N 36°00' W 007°04'410.2
2017-Oct-12 19:56N 36°01' W 007°08'510.5
2017-Oct-12 19:30N 36°01' W 007°14'1010.3
2017-Oct-12 18:31N 36°03' W 007°26'1 9.6
2017-Oct-12 18:26N 36°03' W 007°27'410.6
2017-Oct-12 18:00N 36°03' W 007°33'510.5
2017-Oct-12 17:30N 36°04' W 007°39'610.5
2017-Oct-12 16:57N 36°05' W 007°46'510.5
2017-Oct-12 16:31N 36°06' W 007°52'1210.6
2017-Oct-12 15:21N 36°08' W 008°07'410.7
2017-Oct-12 15:00N 36°09' W 008°11'1010.3
2017-Oct-12 14:01N 36°10' W 008°24'210.5
2017-Oct-12 13:48N 36°11' W 008°27'410.6
2017-Oct-12 13:28N 36°11' W 008°31'610.7
2017-Oct-12 12:54N 36°12' W 008°38'2310.5
2017-Oct-12 10:40N 36°15' W 009°07'210.4
2017-Oct-12 10:30N 36°16' W 009°09'3010.4
2017-Oct-12 07:36N 36°24' W 009°45'2210.5
2017-Oct-12 05:31N 36°33' W 010°10'30710.4
2017-Oct-11 00:00N 38°41' W 016°02'  

Dump ship's entire track history